Terminal Aerodrome Forecast
Issued by NWS

Home | Current Version | Previous Version | Text Only | Print | Product List | Glossary On
Versions: 1 2 3 4 5 6 7 8 9 10 11 12 13 14 15 16 17 18
000
FTUS45 KFGZ 181100
TAFPRC
TAF
KPRC 181139Z 1812/1912 VRB04KT P6SM VCSH FEW015 BKN050
      TEMPO 1812/1816 2SM -SHSNRA BR BKN007
     FM181600 VRB06KT P6SM SCT022 BKN045
      TEMPO 1816/1818 -SHRASN BKN020
     FM190100 20004KT P6SM SCT045=

USA.gov is the U.S. government's official web portal to all federal, state and local government web resources and services.